createdAt,value
2017-12-03T00:01:45.496Z,19.10
2017-12-03T00:04:13.179Z,16.73
2017-12-03T00:06:40.778Z,17.97
2017-12-03T00:09:08.382Z,16.20
2017-12-03T00:11:36.120Z,17.50
2017-12-03T00:14:03.727Z,20.63
2017-12-03T00:16:31.330Z,14.03
2017-12-03T00:18:59.039Z,15.27
2017-12-03T00:21:26.643Z,13.60
2017-12-03T00:23:54.251Z,10.20
2017-12-03T00:26:21.962Z,8.67
2017-12-03T00:28:49.555Z,10.10
2017-12-03T00:31:17.153Z,7.50
2017-12-03T00:33:44.872Z,12.90
2017-12-03T00:36:12.474Z,7.67
2017-12-03T00:38:40.063Z,9.60
2017-12-03T00:41:07.771Z,10.90
2017-12-03T00:43:35.367Z,10.53
2017-12-03T00:46:02.958Z,7.17
2017-12-03T00:48:30.671Z,8.60
2017-12-03T00:50:58.278Z,11.57
2017-12-03T00:53:25.881Z,7.37
2017-12-03T00:55:53.554Z,8.10
2017-12-03T00:58:21.151Z,7.73
2017-12-03T01:00:48.817Z,5.87
2017-12-03T01:03:16.462Z,7.20
2017-12-03T01:05:44.051Z,9.27
2017-12-03T01:08:11.732Z,6.10
2017-12-03T01:10:39.411Z,5.83
2017-12-03T01:13:07.059Z,6.10
2017-12-03T01:15:34.836Z,5.80
2017-12-03T01:18:02.527Z,7.30
2017-12-03T01:20:30.171Z,6.17
2017-12-03T01:22:57.783Z,6.40
2017-12-03T01:25:25.547Z,6.63
2017-12-03T01:27:53.198Z,5.20
2017-12-03T01:30:20.800Z,5.90
2017-12-03T01:32:48.434Z,6.50
2017-12-03T01:35:16.022Z,5.90
2017-12-03T01:37:43.675Z,7.37
2017-12-03T01:40:11.307Z,6.60
2017-12-03T01:42:38.964Z,7.03
2017-12-03T01:45:06.555Z,9.53
2017-12-03T01:47:34.271Z,7.07
2017-12-03T01:50:01.863Z,8.93
2017-12-03T01:52:29.539Z,9.43
2017-12-03T01:54:57.248Z,9.67
2017-12-03T01:57:24.843Z,9.10
2017-12-03T01:59:52.448Z,8.30
2017-12-03T02:02:20.099Z,12.10
2017-12-03T02:04:47.764Z,10.57
2017-12-03T02:07:15.387Z,17.27
2017-12-03T02:09:43.046Z,15.40
2017-12-03T02:12:10.647Z,11.97
2017-12-03T02:14:38.247Z,11.50
2017-12-03T02:17:05.898Z,11.40
2017-12-03T02:19:33.507Z,11.67
2017-12-03T02:22:01.127Z,11.47
2017-12-03T02:24:28.762Z,11.93
2017-12-03T02:26:56.359Z,12.73
2017-12-03T02:29:23.955Z,10.80
2017-12-03T02:31:51.652Z,11.87
2017-12-03T02:34:19.257Z,13.80
2017-12-03T02:36:46.855Z,12.37
2017-12-03T02:39:14.498Z,15.87
2017-12-03T02:41:42.151Z,14.80
2017-12-03T02:44:10.759Z,11.50
2017-12-03T02:46:38.407Z,13.57
2017-12-03T02:49:05.999Z,19.60
2017-12-03T02:51:33.611Z,15.90
2017-12-03T02:54:01.280Z,12.87
2017-12-03T02:56:28.867Z,11.00
2017-12-03T02:58:56.529Z,16.33
2017-12-03T03:01:24.171Z,18.03
2017-12-03T03:03:51.767Z,12.10
2017-12-03T03:06:19.354Z,12.27
2017-12-03T03:08:47.007Z,13.10
2017-12-03T03:11:14.663Z,24.13
2017-12-03T03:13:42.255Z,21.03
2017-12-03T03:16:09.912Z,14.70
2017-12-03T03:18:37.514Z,13.50
2017-12-03T03:21:05.164Z,12.10
2017-12-03T03:23:32.803Z,19.30
2017-12-03T03:26:00.398Z,18.33
2017-12-03T03:28:27.991Z,20.53
2017-12-03T03:30:55.696Z,16.90
2017-12-03T03:33:23.298Z,24.80
2017-12-03T03:35:50.908Z,22.20
2017-12-03T03:38:18.567Z,23.80
2017-12-03T03:40:46.227Z,23.23
2017-12-03T03:43:13.896Z,30.23
2017-12-03T03:45:41.567Z,25.57
2017-12-03T03:48:09.244Z,24.30
2017-12-03T03:50:36.852Z,23.50
2017-12-03T03:53:04.511Z,21.23
2017-12-03T03:55:32.131Z,22.70
2017-12-03T03:57:59.723Z,22.00
2017-12-03T04:00:27.395Z,25.40
2017-12-03T04:02:55.011Z,28.70
2017-12-03T04:05:22.632Z,28.03
2017-12-03T04:07:50.282Z,45.83
2017-12-03T04:10:17.883Z,31.07
2017-12-03T04:12:45.572Z,34.57
2017-12-03T04:15:13.254Z,35.70
2017-12-03T04:17:40.868Z,35.07
2017-12-03T04:20:08.484Z,27.33
2017-12-03T04:22:36.232Z,42.77
2017-12-03T04:25:03.895Z,34.27
2017-12-03T04:27:31.619Z,39.43
2017-12-03T04:29:59.336Z,38.07
2017-12-03T04:32:27.057Z,51.83
2017-12-03T04:34:54.776Z,37.03
2017-12-03T04:37:22.488Z,33.03
2017-12-03T04:39:50.229Z,34.70
2017-12-03T04:42:17.907Z,42.97
2017-12-03T04:44:45.676Z,38.80
2017-12-03T04:47:13.399Z,56.70
2017-12-03T04:49:41.007Z,45.37
2017-12-03T04:52:08.671Z,34.47
2017-12-03T04:54:36.283Z,29.60
2017-12-03T04:57:03.909Z,37.47
2017-12-03T04:59:31.567Z,45.03
2017-12-03T05:01:59.167Z,62.73
2017-12-03T05:04:26.861Z,74.20
2017-12-03T05:06:54.531Z,53.77
2017-12-03T05:09:22.199Z,65.20
2017-12-03T05:11:49.807Z,64.67
2017-12-03T05:14:17.522Z,61.83
2017-12-03T05:16:45.134Z,79.03
2017-12-03T05:19:12.743Z,55.83
2017-12-03T05:21:40.403Z,98.63
2017-12-03T05:24:08.027Z,45.40
2017-12-03T05:26:35.691Z,58.43
2017-12-03T05:29:03.423Z,55.10
2017-12-03T05:31:31.035Z,53.60
2017-12-03T05:33:58.635Z,69.07
2017-12-03T05:36:26.308Z,62.80
2017-12-03T05:38:53.910Z,69.63
2017-12-03T05:41:21.582Z,52.83
2017-12-03T05:43:49.251Z,88.00
2017-12-03T05:46:16.862Z,68.03
2017-12-03T05:48:44.473Z,54.70
2017-12-03T05:51:12.122Z,67.90
2017-12-03T05:53:39.731Z,90.80
2017-12-03T05:56:07.394Z,66.53
2017-12-03T05:58:35.043Z,59.43
2017-12-03T06:01:02.659Z,78.20
2017-12-03T06:03:30.324Z,74.97
2017-12-03T06:05:58.040Z,55.37
2017-12-03T06:08:25.755Z,69.83
2017-12-03T06:10:53.427Z,68.83
2017-12-03T06:13:21.147Z,101.50
2017-12-03T06:15:48.815Z,89.47
2017-12-03T06:18:16.426Z,88.80
2017-12-03T06:20:44.086Z,82.57
2017-12-03T06:23:11.691Z,59.77
2017-12-03T06:25:39.357Z,73.23
2017-12-03T06:28:07.055Z,92.20
2017-12-03T06:30:34.666Z,133.20
2017-12-03T06:33:02.323Z,92.70
2017-12-03T06:35:29.975Z,68.40
2017-12-03T06:37:57.606Z,102.80
2017-12-03T06:40:25.199Z,93.87
2017-12-03T06:42:52.923Z,84.60
2017-12-03T06:45:20.591Z,96.63
2017-12-03T06:47:48.202Z,97.73
2017-12-03T06:50:15.863Z,72.33
2017-12-03T06:52:43.462Z,64.67
2017-12-03T06:55:11.071Z,78.47
2017-12-03T06:57:38.722Z,80.83
2017-12-03T07:00:06.383Z,53.03
2017-12-03T07:02:34.035Z,62.13
2017-12-03T07:05:01.694Z,53.13
2017-12-03T07:07:29.303Z,49.03
2017-12-03T07:09:56.963Z,45.53
2017-12-03T07:12:24.771Z,55.80
2017-12-03T07:14:52.439Z,42.17
2017-12-03T07:17:20.047Z,33.57
2017-12-03T07:19:47.717Z,21.93
2017-12-03T07:22:15.358Z,29.50
2017-12-03T07:24:43.039Z,24.17
2017-12-03T07:27:10.739Z,32.97
2017-12-03T07:29:38.402Z,36.57
2017-12-03T07:32:06.015Z,28.33
2017-12-03T07:34:33.813Z,120.40
2017-12-03T07:37:01.480Z,39.63
2017-12-03T07:39:29.150Z,24.33
2017-12-03T07:41:56.866Z,32.57
2017-12-03T07:44:24.591Z,28.83
2017-12-03T07:46:52.251Z,38.07
2017-12-03T07:49:19.962Z,37.10
2017-12-03T07:51:47.631Z,37.97
2017-12-03T07:54:15.310Z,52.23
2017-12-03T07:56:42.987Z,45.20
2017-12-03T07:59:10.607Z,49.70
2017-12-03T08:01:38.225Z,49.97
2017-12-03T08:04:05.883Z,52.77
2017-12-03T08:06:33.495Z,62.70
2017-12-03T08:09:01.163Z,69.67
2017-12-03T08:11:28.846Z,65.23
2017-12-03T08:13:56.463Z,70.07
2017-12-03T08:16:24.179Z,76.53
2017-12-03T08:18:51.959Z,53.50
2017-12-03T08:21:19.622Z,43.30
2017-12-03T08:23:47.288Z,56.30
2017-12-03T08:26:14.999Z,49.83
2017-12-03T08:28:42.744Z,44.50
2017-12-03T08:31:10.363Z,50.90
2017-12-03T08:33:38.031Z,57.17
2017-12-03T08:36:05.683Z,50.90
2017-12-03T08:38:33.343Z,46.30
2017-12-03T08:41:01.087Z,54.40
2017-12-03T08:43:28.756Z,53.50
2017-12-03T08:45:56.452Z,50.93
2017-12-03T08:48:24.192Z,45.83
2017-12-03T08:50:51.810Z,62.23
2017-12-03T08:53:19.426Z,61.40
2017-12-03T08:55:47.150Z,62.33
2017-12-03T08:58:14.840Z,65.73
2017-12-03T09:00:42.567Z,78.47
2017-12-03T09:03:10.320Z,52.60
2017-12-03T09:05:38.028Z,40.27
2017-12-03T09:08:05.713Z,34.47
2017-12-03T09:10:33.379Z,31.10
2017-12-03T09:13:01.001Z,38.57
2017-12-03T09:15:28.669Z,32.80
2017-12-03T09:17:56.391Z,33.50
2017-12-03T09:20:23.998Z,35.60
2017-12-03T09:22:51.680Z,37.97
2017-12-03T09:25:19.408Z,48.30
2017-12-03T09:27:47.088Z,47.33
2017-12-03T09:30:14.723Z,44.37
2017-12-03T09:32:46.758Z,46.03
2017-12-03T09:35:15.412Z,51.17
2017-12-03T09:37:44.312Z,58.43
2017-12-03T09:40:12.079Z,52.80
2017-12-03T09:42:39.763Z,92.47
2017-12-03T09:45:07.381Z,31.87
2017-12-03T09:47:35.243Z,31.40
2017-12-03T09:50:04.462Z,44.77
2017-12-03T09:52:32.824Z,36.77
2017-12-03T09:55:00.480Z,42.23
2017-12-03T09:57:29.595Z,32.63
2017-12-03T09:59:57.218Z,36.72
2017-12-03T10:02:24.900Z,116.27
2017-12-03T10:04:52.571Z,44.80
2017-12-03T10:07:20.190Z,27.97
2017-12-03T10:09:47.884Z,33.47
2017-12-03T10:12:15.491Z,36.63
2017-12-03T10:14:43.218Z,32.67
2017-12-03T10:17:11.516Z,37.13
2017-12-03T10:19:39.195Z,36.10
2017-12-03T10:22:06.924Z,33.17
2017-12-03T10:24:36.355Z,31.10
2017-12-03T10:27:04.053Z,34.73
2017-12-03T10:29:31.696Z,29.10
2017-12-03T10:32:00.344Z,32.20
2017-12-03T10:34:29.150Z,27.60
2017-12-03T10:36:58.187Z,41.83
2017-12-03T10:39:26.540Z,38.30
2017-12-03T10:41:54.175Z,45.20
2017-12-03T10:44:22.947Z,39.20
2017-12-03T10:46:50.795Z,33.53
2017-12-03T10:49:18.465Z,42.07
2017-12-03T10:51:46.063Z,74.53
2017-12-03T10:54:13.793Z,153.33
2017-12-03T10:56:41.463Z,85.93
2017-12-03T10:59:09.139Z,67.83
2017-12-03T11:01:36.891Z,45.03
2017-12-03T11:04:04.502Z,77.83
2017-12-03T11:06:32.136Z,54.20
2017-12-03T11:08:59.828Z,132.73
2017-12-03T11:11:27.451Z,117.63
2017-12-03T11:13:55.063Z,81.43
